Dumas, TX

5:36 PM CST on February 24, 2017 (GMT -0600)
Moore County

Weather History for KDUX - December, 2012

Change the Weather History Date:

Monday, December 3, 2012

  Actual Average (KDHT) Record (KDHT)
Temperature  
Mean Temperature 56 °F -  
Max Temperature 68 °F 50 °F 75 °F (2010)
Min Temperature 44 °F 23 °F 7 °F (1964)
Degree Days  
Heating Degree Days 9    
Growing Degree Days 6 (Base 50)    
Moisture  
Dew Point 24 °F    
Average Humidity 32    
Maximum Humidity 57    
Minimum Humidity 18    
Precipitation  
Precipitation 0.00 in - - ()
Sea Level Pressure  
Sea Level Pressure 29.94 in    
Wind  
Wind Speed 16 mph (NW)    
Max Wind Speed 22 mph    
Max Gust Speed 31 mph    
Visibility 10 miles    
Events      
Averages and records for this station are not official NWS values.
T = Trace of Precipitation, MM = Missing Value Source: NWS Daily Summary

Daily Weather History Graph

Daily Weather History Graph

Search for Another Location

Airport or City:

Trip Planner

Search our weather history database for the weather conditions in past years. The results will help you decide how hot, cold, wet, or windy it might be!

Date:

Astronomy

Dec. 03, 2012 Rise Set
Actual Time 7:42 AM CST 5:34 PM CST
Civil Twilight 7:13 AM CST 6:02 PM CST
Nautical Twilight 6:42 AM CST 6:33 PM CST
Astronomical Twilight 6:11 AM CST 7:04 PM CST
Moon 10:17 PM CST (12/3) 11:10 AM CST (12/3)
Length of Visible Light 10h 48m
Length of Day
9h 52m
Waning Gibbous, 78% of the Moon is Illuminated
Dec 3
Waning Gibbous
Dec 6
Last Quarter
Dec 13
New
Dec 19
First Quarter
Dec 28
Full

Hourly Weather History & Observations

Time (CST) Temp. Windchill Dew Point Humidity Pressure Visibility Wind Dir Wind Speed Gust Speed Precip Events Conditions
12:15 AM 51.8 °F - 15.8 °F 24% 29.80 in 10.0 mi SW 17.3 mph - N/A   Clear
12:35 AM 53.6 °F - 17.6 °F 24% 29.79 in 10.0 mi WSW 21.9 mph - N/A   Clear
12:55 AM 53.6 °F - 19.4 °F 26% 29.79 in 10.0 mi SW 21.9 mph 27.6 mph N/A   Clear
1:15 AM 53.6 °F - 19.4 °F 26% 29.79 in 10.0 mi SW 21.9 mph 27.6 mph N/A   Clear
1:35 AM 53.6 °F - 19.4 °F 26% 29.78 in 10.0 mi SW 20.7 mph - N/A   Clear
1:55 AM 51.8 °F - 19.4 °F 28% 29.78 in 10.0 mi SW 15.0 mph - N/A   Clear
2:15 AM 50.0 °F - 19.4 °F 30% 29.77 in 10.0 mi SW 12.7 mph - N/A   Clear
2:35 AM 53.6 °F - 21.2 °F 28% 29.76 in 10.0 mi WSW 21.9 mph - N/A   Clear
2:55 AM 53.6 °F - 21.2 °F 28% 29.77 in 10.0 mi WSW 20.7 mph - N/A   Clear
3:15 AM 51.8 °F - 21.2 °F 30% 29.76 in 10.0 mi SW 20.7 mph - N/A   Clear
3:35 AM 53.6 °F - 19.4 °F 26% 29.77 in 10.0 mi WSW 20.7 mph - N/A   Clear
3:55 AM 51.8 °F - 19.4 °F 28% 29.77 in 10.0 mi SW 16.1 mph - N/A   Clear
4:15 AM 50.0 °F - 19.4 °F 30% 29.76 in 10.0 mi SW 18.4 mph - N/A   Clear
4:35 AM 51.8 °F - 19.4 °F 28% 29.77 in 10.0 mi SW 18.4 mph - N/A   Clear
4:55 AM 51.8 °F - 19.4 °F 28% 29.76 in 10.0 mi SW 20.7 mph - N/A   Clear
5:15 AM 51.8 °F - 19.4 °F 28% 29.76 in 10.0 mi SW 18.4 mph - N/A   Clear
5:35 AM 50.0 °F - 17.6 °F 28% 29.76 in 10.0 mi SW 15.0 mph - N/A   Clear
5:55 AM 51.8 °F - 17.6 °F 26% 29.75 in 10.0 mi SW 18.4 mph - N/A   Clear
6:15 AM 50.0 °F - 17.6 °F 28% 29.76 in 10.0 mi SW 15.0 mph - N/A   Clear
6:35 AM 50.0 °F - 17.6 °F 28% 29.78 in 10.0 mi SW 12.7 mph - N/A   Clear
6:55 AM 48.2 °F - 19.4 °F 32% 29.79 in 10.0 mi WSW 10.4 mph - N/A   Clear
7:15 AM 50.0 °F - 19.4 °F 30% 29.81 in 10.0 mi WSW 16.1 mph - N/A   Clear
7:35 AM 50.0 °F - 19.4 °F 30% 29.82 in 10.0 mi WSW 16.1 mph - N/A   Clear
7:55 AM 50.0 °F - 19.4 °F 30% 29.84 in 10.0 mi West 13.8 mph - N/A   Clear
8:15 AM 50.0 °F - 19.4 °F 30% 29.85 in 10.0 mi West 15.0 mph - N/A   Clear
8:35 AM 50.0 °F - 21.2 °F 32% 29.86 in 10.0 mi West 15.0 mph - N/A   Clear
8:55 AM 53.6 °F - 21.2 °F 28% 29.87 in 10.0 mi West 17.3 mph - N/A   Clear
9:15 AM 55.4 °F - 21.2 °F 26% 29.89 in 10.0 mi West 15.0 mph - N/A   Clear
9:35 AM 59.0 °F - 23.0 °F 25% 29.90 in 10.0 mi West 11.5 mph - N/A   Clear
9:55 AM 60.8 °F - 23.0 °F 23% 29.91 in 10.0 mi West 13.8 mph - N/A   Clear
10:15 AM 62.6 °F - 23.0 °F 22% 29.93 in 10.0 mi West 9.2 mph - N/A   Clear
10:35 AM 64.4 °F - 23.0 °F 21% 29.95 in 10.0 mi WNW 5.8 mph - N/A   Clear
10:55 AM 68.0 °F - 23.0 °F 18% 29.97 in 10.0 mi North 13.8 mph 23.0 mph N/A   Clear
11:35 AM 64.4 °F - 24.8 °F 22% 29.97 in 7.0 mi North 18.4 mph 27.6 mph N/A   Scattered Clouds
11:55 AM 64.4 °F - 21.2 °F 19% 29.97 in 10.0 mi NNE 16.1 mph 25.3 mph N/A   Mostly Cloudy
12:15 PM 66.2 °F - 21.2 °F 18% 29.96 in 10.0 mi NNE 21.9 mph 31.1 mph N/A   Overcast
12:35 PM 66.2 °F - 21.2 °F 18% 29.96 in 10.0 mi NNE 17.3 mph 25.3 mph N/A   Overcast
12:55 PM 66.2 °F - 21.2 °F 18% 29.95 in 10.0 mi NNE 17.3 mph 25.3 mph N/A   Scattered Clouds
1:15 PM 64.4 °F - 21.2 °F 19% 29.95 in 10.0 mi NNE 17.3 mph 27.6 mph N/A   Clear
1:35 PM 66.2 °F - 21.2 °F 18% 29.95 in 10.0 mi NNE 20.7 mph 26.5 mph N/A   Clear
1:55 PM 64.4 °F - 21.2 °F 19% 29.97 in 10.0 mi North 17.3 mph 27.6 mph N/A   Clear
2:15 PM 64.4 °F - 21.2 °F 19% 29.96 in 10.0 mi North 17.3 mph 21.9 mph N/A   Scattered Clouds
2:35 PM 64.4 °F - 23.0 °F 21% 29.97 in 10.0 mi North 17.3 mph 23.0 mph N/A   Mostly Cloudy
2:55 PM 64.4 °F - 24.8 °F 22% 29.97 in 7.0 mi North 16.1 mph - N/A   Overcast
3:15 PM 62.6 °F - 26.6 °F 26% 29.97 in 7.0 mi North 15.0 mph 19.6 mph N/A   Overcast
3:35 PM 62.6 °F - 28.4 °F 27% 29.98 in 10.0 mi NNE 17.3 mph 20.7 mph N/A   Overcast
3:55 PM 60.8 °F - 30.2 °F 31% 29.99 in 10.0 mi NNE 16.1 mph 21.9 mph N/A   Overcast
4:15 PM 60.8 °F - 30.2 °F 31% 30.01 in 10.0 mi NNE 17.3 mph 23.0 mph N/A   Overcast
4:35 PM 59.0 °F - 30.2 °F 34% 30.02 in 7.0 mi NNE 17.3 mph 24.2 mph N/A   Overcast
4:55 PM 59.0 °F - 30.2 °F 34% 30.02 in 7.0 mi NNE 16.1 mph 23.0 mph N/A   Overcast
5:15 PM 59.0 °F - 30.2 °F 34% 30.04 in 10.0 mi NNE 11.5 mph - N/A   Overcast
5:35 PM 55.4 °F - 28.4 °F 36% 30.05 in 10.0 mi NNE 11.5 mph - N/A   Mostly Cloudy
5:55 PM 53.6 °F - 30.2 °F 41% 30.06 in 10.0 mi NNE 8.1 mph - N/A   Scattered Clouds
6:15 PM 53.6 °F - 30.2 °F 41% 30.06 in 10.0 mi NNE 9.2 mph - N/A   Clear
6:35 PM 53.6 °F - 30.2 °F 41% 30.07 in 10.0 mi NNE 8.1 mph - N/A   Scattered Clouds
6:55 PM 53.6 °F - 30.2 °F 41% 30.08 in 10.0 mi NNE 8.1 mph - N/A   Scattered Clouds
7:15 PM 53.6 °F - 30.2 °F 41% 30.10 in 10.0 mi NNE 9.2 mph - N/A   Scattered Clouds
7:35 PM 51.8 °F - 30.2 °F 44% 30.10 in 10.0 mi North 9.2 mph - N/A   Clear
7:55 PM 50.0 °F - 30.2 °F 47% 30.11 in 10.0 mi North 6.9 mph - N/A   Clear
8:15 PM 50.0 °F - 30.2 °F 47% 30.12 in 10.0 mi NNE 9.2 mph - N/A   Clear
8:35 PM 50.0 °F - 30.2 °F 47% 30.13 in 10.0 mi NNE 9.2 mph - N/A   Clear
8:55 PM 50.0 °F - 30.2 °F 47% 30.13 in 10.0 mi NNE 10.4 mph - N/A   Clear
9:15 PM 48.2 °F - 30.2 °F 50% 30.12 in 10.0 mi NNE 10.4 mph - N/A   Clear
9:35 PM 46.4 °F 41.1 °F 30.2 °F 53% 30.13 in 10.0 mi NNE 11.5 mph - N/A   Clear
9:55 PM 46.4 °F 41.9 °F 30.2 °F 53% 30.15 in 10.0 mi North 9.2 mph - N/A   Clear
10:15 PM 44.6 °F 40.7 °F 30.2 °F 57% 30.16 in 10.0 mi North 6.9 mph - N/A   Clear
10:35 PM 44.6 °F 39.7 °F 30.2 °F 57% 30.16 in 10.0 mi North 9.2 mph - N/A   Clear
10:55 PM 46.4 °F 41.1 °F 30.2 °F 53% 30.16 in 10.0 mi NNE 11.5 mph - N/A   Clear
11:15 PM 44.6 °F 39.2 °F 30.2 °F 57% 30.17 in 10.0 mi NNE 10.4 mph - N/A   Clear
11:35 PM 44.6 °F 40.7 °F 30.2 °F 57% 30.17 in 10.0 mi NE 6.9 mph - N/A   Clear